createdAt,value
2022-09-20T00:01:21.712Z,8.71
2022-09-20T00:08:00.858Z,8.66
2022-09-20T00:13:06.866Z,8.54
2022-09-20T00:18:15.242Z,8.62
2022-09-20T00:23:23.382Z,8.7
2022-09-20T00:28:30.913Z,8.67
2022-09-20T00:33:39.466Z,8.71
2022-09-20T00:38:46.668Z,8.68
2022-09-20T00:43:54.551Z,8.8
2022-09-20T00:49:01.753Z,8.97
2022-09-20T00:54:10.579Z,9.11
2022-09-20T00:59:18.333Z,8.92
2022-09-20T01:04:25.804Z,8.8
2022-09-20T01:09:33.156Z,8.85
2022-09-20T01:14:40.932Z,8.8
2022-09-20T01:19:48.105Z,8.72
2022-09-20T01:24:56.369Z,8.77
2022-09-20T01:30:03.150Z,8.75
2022-09-20T01:35:10.913Z,8.82
2022-09-20T01:40:18.273Z,8.98
2022-09-20T01:45:26.236Z,9.38
2022-09-20T01:50:34.086Z,9.53
2022-09-20T01:55:41.702Z,9.58
2022-09-20T02:00:49.934Z,9.65
2022-09-20T02:05:58.005Z,9.49
2022-09-20T02:11:05.708Z,9.4
2022-09-20T02:16:14.712Z,9.26
2022-09-20T02:21:22.147Z,9.26
2022-09-20T02:26:30.461Z,9.22
2022-09-20T02:31:40.224Z,9.3
2022-09-20T02:36:48.655Z,9.31
2022-09-20T02:41:56.918Z,9.29
2022-09-20T02:47:03.951Z,9.17
2022-09-20T02:52:13.500Z,9.01
2022-09-20T02:57:20.829Z,8.97
2022-09-20T03:02:28.105Z,8.97
2022-09-20T03:07:35.443Z,9.16
2022-09-20T03:12:44.154Z,9.1
2022-09-20T03:17:53.019Z,8.94
2022-09-20T03:23:01.173Z,8.93
2022-09-20T03:28:08.585Z,8.8
2022-09-20T03:33:16.489Z,8.72
2022-09-20T03:38:22.979Z,8.64
2022-09-20T03:43:30.833Z,8.62
2022-09-20T03:48:38.195Z,8.6
2022-09-20T03:53:45.861Z,8.61
2022-09-20T03:58:53.783Z,8.76
2022-09-20T04:04:01.659Z,8.81
2022-09-20T04:09:08.940Z,8.86
2022-09-20T04:14:17.253Z,8.88
2022-09-20T04:19:24.477Z,9.1
2022-09-20T04:24:31.852Z,9.12
2022-09-20T04:29:40.701Z,9.15
2022-09-20T04:34:49.750Z,9.19
2022-09-20T04:39:57.569Z,9.28
2022-09-20T04:45:06.278Z,9.31
2022-09-20T04:50:14.870Z,9.36
2022-09-20T04:55:21.861Z,9.52
2022-09-20T05:00:29.053Z,9.62
2022-09-20T05:05:36.262Z,9.88
2022-09-20T05:10:44.498Z,10.12
2022-09-20T05:15:52.503Z,10.35
2022-09-20T05:21:03.128Z,10.46
2022-09-20T05:26:11.349Z,10.55
2022-09-20T05:31:19.192Z,10.49
2022-09-20T05:36:27.176Z,10.44
2022-09-20T05:41:35.888Z,10.24
2022-09-20T05:46:44.357Z,10.12
2022-09-20T05:51:51.889Z,10.23
2022-09-20T05:57:00.995Z,10.49
2022-09-20T06:02:08.589Z,10.71
2022-09-20T06:07:18.539Z,10.88
2022-09-20T06:12:31.675Z,10.72
2022-09-20T06:17:39.976Z,10.66
2022-09-20T06:22:47.304Z,10.62
2022-09-20T06:27:55.349Z,10.9
2022-09-20T06:33:03.234Z,11.12
2022-09-20T06:38:11.692Z,11.19
2022-09-20T06:43:19.845Z,11.26
2022-09-20T06:48:28.218Z,11.29
2022-09-20T06:53:35.661Z,11.42
2022-09-20T06:58:44.053Z,11.69
2022-09-20T07:03:51.959Z,12.02
2022-09-20T07:08:58.830Z,11.98
2022-09-20T07:14:07.560Z,11.96
2022-09-20T07:19:14.840Z,12.29
2022-09-20T07:24:23.116Z,12.53
2022-09-20T07:29:30.558Z,12.62
2022-09-20T07:34:38.665Z,12.85
2022-09-20T07:39:46.687Z,13.34
2022-09-20T07:44:54.799Z,13.94
2022-09-20T07:50:02.004Z,13.76
2022-09-20T07:55:09.118Z,13.78
2022-09-20T08:00:16.984Z,14.01
2022-09-20T08:05:26.147Z,15.25
2022-09-20T08:10:33.267Z,16.62
2022-09-20T08:15:41.641Z,16.11
2022-09-20T08:20:49.152Z,15.26
2022-09-20T08:25:56.111Z,15.06
2022-09-20T08:31:10.038Z,14.85
2022-09-20T08:36:16.905Z,14.59
2022-09-20T08:41:25.247Z,14.61
2022-09-20T08:46:32.572Z,14.65
2022-09-20T08:51:40.910Z,14.86
2022-09-20T08:56:47.672Z,14.97
2022-09-20T09:01:56.843Z,16.24
2022-09-20T09:07:04.596Z,18.12
2022-09-20T09:12:11.431Z,18.26
2022-09-20T09:17:18.599Z,17.7
2022-09-20T09:22:26.189Z,17.07
2022-09-20T09:32:44.554Z,18.03
2022-09-20T09:37:52.424Z,19.1
2022-09-20T09:43:03.105Z,19.06
2022-09-20T09:48:10.616Z,18.11
2022-09-20T09:53:18.779Z,17.9
2022-09-20T09:58:27.016Z,18.68
2022-09-20T10:03:33.977Z,17.38
2022-09-20T10:08:42.378Z,17.02
2022-09-20T10:13:49.079Z,17.51
2022-09-20T10:18:56.250Z,16.79
2022-09-20T10:24:04.046Z,15.65
2022-09-20T10:29:11.298Z,15.35
2022-09-20T10:34:19.143Z,15.46
2022-09-20T10:39:26.420Z,14.59
2022-09-20T10:44:34.219Z,14.12
2022-09-20T10:49:41.416Z,15.02
2022-09-20T10:54:49.868Z,17.17
2022-09-20T10:59:57.064Z,18.33
2022-09-20T11:05:04.184Z,18.6
2022-09-20T11:10:11.777Z,19.97
2022-09-20T11:15:21.086Z,21.64
2022-09-20T11:20:27.176Z,20.65
2022-09-20T11:25:36.143Z,18.94
2022-09-20T11:30:43.450Z,18.17
2022-09-20T11:35:50.626Z,17.32
2022-09-20T11:40:58.334Z,15.79
2022-09-20T11:46:06.322Z,15.02
2022-09-20T11:51:15.322Z,14.4
2022-09-20T11:56:21.879Z,13.85
2022-09-20T12:01:29.330Z,13.98
2022-09-20T12:06:36.426Z,14.42
2022-09-20T12:11:44.393Z,14.56
2022-09-20T12:16:50.818Z,14.47
2022-09-20T12:21:59.217Z,15.13
2022-09-20T12:27:06.001Z,14.98
2022-09-20T12:32:14.254Z,14.75
2022-09-20T12:37:21.538Z,16.52
2022-09-20T12:42:28.764Z,18.64
2022-09-20T12:47:35.906Z,16.82
2022-09-20T12:52:44.246Z,15.44
2022-09-20T12:57:52.015Z,14.71
2022-09-20T13:02:58.864Z,14.24
2022-09-20T13:08:05.386Z,14.28
2022-09-20T13:13:12.759Z,14.46
2022-09-20T13:18:20.465Z,14.54
2022-09-20T13:23:27.667Z,14.34
2022-09-20T13:28:36.488Z,14.15
2022-09-20T13:33:44.451Z,13.8
2022-09-20T13:38:51.783Z,13.54
2022-09-20T13:44:00.153Z,13.22
2022-09-20T13:49:07.457Z,13.18
2022-09-20T13:54:16.050Z,13.19
2022-09-20T13:59:23.186Z,14.78
2022-09-20T14:04:31.030Z,19.49
2022-09-20T14:09:38.234Z,21.47
2022-09-20T14:14:46.518Z,21.94
2022-09-20T14:19:53.217Z,22.08
2022-09-20T14:25:00.418Z,21.24
2022-09-20T14:30:07.617Z,20.67
2022-09-20T14:35:56.448Z,18.76
2022-09-20T14:41:04.904Z,17.12
2022-09-20T14:46:11.459Z,15.68
2022-09-20T14:51:19.945Z,16.01
2022-09-20T14:56:41.856Z,15.97
2022-09-20T15:01:49.920Z,16.84
2022-09-20T15:06:57.550Z,17.75
2022-09-20T15:12:04.883Z,15.58
2022-09-20T15:17:13.056Z,17.12
2022-09-20T15:22:19.823Z,15.72
2022-09-20T15:27:28.824Z,16.11
2022-09-20T15:32:36.354Z,15.8
2022-09-20T15:37:44.240Z,17.73
2022-09-20T15:42:51.375Z,16.78
2022-09-20T15:47:58.333Z,15.89
2022-09-20T15:53:05.465Z,16.28
2022-09-20T15:58:12.679Z,16.02
2022-09-20T16:03:20.656Z,13.86
2022-09-20T16:08:27.784Z,12.58
2022-09-20T16:13:34.975Z,11.8
2022-09-20T16:18:42.553Z,11.36
2022-09-20T16:23:50.605Z,11.11
2022-09-20T16:28:58.935Z,10.89
2022-09-20T16:34:06.855Z,10.78
2022-09-20T16:39:15.285Z,10.68
2022-09-20T16:45:01.766Z,10.44
2022-09-20T16:50:08.953Z,10.28
2022-09-20T16:55:16.179Z,10.16
2022-09-20T17:00:24.914Z,10.06
2022-09-20T17:05:31.838Z,9.99
2022-09-20T17:30:32.819Z,9.3
2022-09-20T17:35:37.919Z,9.22
2022-09-20T17:40:46.346Z,9.04
2022-09-20T17:45:53.547Z,8.93
2022-09-20T17:51:00.834Z,8.96
2022-09-20T17:56:09.151Z,8.81
2022-09-20T18:01:17.065Z,8.66
2022-09-20T18:06:25.593Z,8.6
2022-09-20T18:11:32.801Z,8.62
2022-09-20T18:16:40.576Z,8.69
2022-09-20T18:21:52.209Z,8.6
2022-09-20T18:27:00.888Z,8.57
2022-09-20T18:32:08.522Z,8.56
2022-09-20T18:37:16.661Z,8.51
2022-09-20T18:42:23.619Z,8.6
2022-09-20T18:47:32.631Z,8.58
2022-09-20T18:52:40.227Z,8.42
2022-09-20T18:57:47.143Z,8.48
2022-09-20T19:02:54.827Z,8.57
2022-09-20T19:08:02.129Z,8.62
2022-09-20T19:13:10.655Z,8.44
2022-09-20T19:18:18.438Z,8.31
2022-09-20T19:23:25.695Z,8.2
2022-09-20T19:28:32.894Z,8.08
2022-09-20T19:33:40.249Z,8.1
2022-09-20T19:38:48.157Z,8.18
2022-09-20T19:43:56.267Z,8.2
2022-09-20T19:49:03.620Z,8.15
2022-09-20T19:54:11.645Z,8.16
2022-09-20T19:59:18.029Z,8.39
2022-09-20T20:04:26.933Z,8.68
2022-09-20T20:09:35.368Z,8.73
2022-09-20T20:14:43.217Z,8.8
2022-09-20T20:19:51.316Z,8.82
2022-09-20T20:24:59.108Z,8.78
2022-09-20T20:30:05.705Z,8.77
2022-09-20T20:35:13.672Z,8.7
2022-09-20T20:40:21.382Z,8.69
2022-09-20T20:45:29.623Z,8.72
2022-09-20T20:50:36.468Z,8.72
2022-09-20T20:55:44.308Z,8.76
2022-09-20T21:00:52.025Z,8.83
2022-09-20T21:06:00.194Z,8.83
2022-09-20T21:11:08.291Z,8.82
2022-09-20T21:16:15.603Z,8.76
2022-09-20T21:21:24.635Z,8.66
2022-09-20T21:26:32.999Z,8.61
2022-09-20T21:31:41.266Z,8.56
2022-09-20T21:36:49.341Z,8.61
2022-09-20T21:41:57.488Z,8.54
2022-09-20T21:47:05.734Z,8.49
2022-09-20T21:52:13.909Z,8.54
2022-09-20T21:57:21.747Z,8.6
2022-09-20T22:02:33.269Z,8.57
2022-09-20T22:07:40.471Z,8.57
2022-09-20T22:12:48.099Z,8.61
2022-09-20T22:17:56.028Z,8.53
2022-09-20T22:23:04.132Z,8.44
2022-09-20T22:28:10.494Z,8.33
2022-09-20T22:33:20.024Z,8.26
2022-09-20T22:38:27.455Z,8.3
2022-09-20T22:43:35.287Z,8.4
2022-09-20T22:48:43.186Z,8.52
2022-09-20T22:53:50.416Z,8.5
2022-09-20T22:58:58.429Z,8.38
2022-09-20T23:04:06.133Z,8.31
2022-09-20T23:09:14.682Z,8.5
2022-09-20T23:14:22.886Z,8.6
2022-09-20T23:19:29.550Z,8.61
2022-09-20T23:24:37.422Z,8.79
2022-09-20T23:29:43.945Z,8.72
2022-09-20T23:34:51.739Z,8.84
2022-09-20T23:39:59.664Z,8.72
2022-09-20T23:45:07.659Z,8.69
2022-09-20T23:50:16.451Z,8.77
2022-09-20T23:55:24.927Z,8.75
